Time;durP1;ratioP1;P1;durP2;ratioP2;P2;SDS_P1;SDS_P2;PMS_P1;PMS_P2;Temp;Humidity;BMP_temperature;BMP_pressure;BME280_temperature;BME280_humidity;BME280_pressure;Samples;Min_cycle;Max_cycle;Signal;HPM_P1;HPM_P2
2021/07/06 00:02:19;;;;;;;;;;;16.60;90.50;;;;;;5054912;28;19924;-60
2021/07/06 00:04:47;;;;;;;;;;;16.60;90.50;;;;;;5054298;28;19917;-60
2021/07/06 00:07:13;;;;;;;;;;;16.60;90.50;;;;;;5054627;28;20004;-60
2021/07/06 00:09:38;;;;;;;;;;;16.60;90.60;;;;;;5054704;28;19975;-59
2021/07/06 00:12:04;;;;;;;;;;;16.60;90.60;;;;;;5054135;28;19921;-59
2021/07/06 00:14:30;;;;;;;;;;;16.60;90.60;;;;;;5054631;28;19921;-60
2021/07/06 00:16:55;;;;;;;;;;;16.60;90.60;;;;;;5054260;28;19928;-60
2021/07/06 00:19:21;;;;;;;;;;;16.60;90.70;;;;;;5054076;28;20316;-60
2021/07/06 00:21:46;;;;;;;;;;;16.70;90.70;;;;;;5054421;28;19917;-60
2021/07/06 00:24:12;;;;;;;;;;;16.70;90.70;;;;;;5053948;28;20443;-60
2021/07/06 00:26:37;;;;;;;;;;;16.70;90.70;;;;;;5054154;28;19916;-60
2021/07/06 00:29:03;;;;;;;;;;;16.70;90.70;;;;;;5036668;28;19968;-60
2021/07/06 00:31:29;;;;;;;;;;;16.70;90.70;;;;;;5053629;28;20295;-59
2021/07/06 00:33:54;;;;;;;;;;;16.80;90.70;;;;;;5054239;28;19921;-59
2021/07/06 00:36:20;;;;;;;;;;;16.80;90.70;;;;;;5054195;28;19974;-59
2021/07/06 00:38:45;;;;;;;;;;;16.90;90.70;;;;;;5053359;28;20403;-60
2021/07/06 00:41:11;;;;;;;;;;;16.90;90.70;;;;;;5053971;28;20361;-59
2021/07/06 00:43:37;;;;;;;;;;;16.90;90.70;;;;;;5053595;28;20359;-59
2021/07/06 00:46:04;;;;;;;;;;;16.90;90.70;;;;;;5054010;28;19966;-59
2021/07/06 00:48:29;;;;;;;;;;;17.00;90.60;;;;;;5036011;28;20055;-59
2021/07/06 00:50:56;;;;;;;;;;;17.00;90.60;;;;;;5053389;28;19999;-60
2021/07/06 00:53:21;;;;;;;;;;;17.00;90.60;;;;;;5053888;28;19917;-59
2021/07/06 00:55:49;;;;;;;;;;;17.00;90.50;;;;;;5053847;28;19928;-59
2021/07/06 00:58:16;;;;;;;;;;;17.10;90.50;;;;;;5053094;28;19916;-60
2021/07/06 01:00:41;;;;;;;;;;;17.10;90.50;;;;;;5053660;28;19947;-59
2021/07/06 01:03:07;;;;;;;;;;;17.10;90.50;;;;;;5053302;28;19994;-59
2021/07/06 01:05:33;;;;;;;;;;;17.10;90.40;;;;;;5053626;28;20377;-60
2021/07/06 01:07:58;;;;;;;;;;;17.10;90.40;;;;;;5053333;28;19924;-60
2021/07/06 01:10:25;;;;;;;;;;;17.10;90.40;;;;;;5053093;28;20399;-59
2021/07/06 01:12:54;;;;;;;;;;;17.10;90.40;;;;;;5053195;28;19917;-60
2021/07/06 01:15:21;;;;;;;;;;;17.10;90.40;;;;;;5053354;28;19921;-60
2021/07/06 01:18:07;;;;;;;;;;;17.10;90.30;;;;;;5052828;28;20011;-60
2021/07/06 01:20:33;;;;;;;;;;;17.10;90.30;;;;;;5053380;28;19921;-60
2021/07/06 01:22:59;;;;;;;;;;;17.10;90.30;;;;;;5052866;28;20349;-60
2021/07/06 01:25:24;;;;;;;;;;;17.20;90.30;;;;;;5053374;28;19924;-60
2021/07/06 01:27:50;;;;;;;;;;;17.20;90.20;;;;;;5052494;28;19917;-60
2021/07/06 01:30:17;;;;;;;;;;;17.20;90.20;;;;;;5052833;28;20392;-60
2021/07/06 01:32:43;;;;;;;;;;;17.20;90.20;;;;;;5053121;28;19941;-60
2021/07/06 01:35:10;;;;;;;;;;;17.20;90.20;;;;;;5052529;28;19921;-59
2021/07/06 01:37:35;;;;;;;;;;;17.20;90.10;;;;;;5052771;28;20008;-60
2021/07/06 01:40:02;;;;;;;;;;;17.20;90.10;;;;;;5052863;28;20337;-59
2021/07/06 01:42:27;;;;;;;;;;;17.20;90.10;;;;;;5052437;28;20012;-59
2021/07/06 01:45:09;;;;;;;;;;;17.20;90.10;;;;;;5052962;28;19955;-59
2021/07/06 01:47:41;;;;;;;;;;;17.20;90.10;;;;;;5052302;28;20300;-59
2021/07/06 01:50:08;;;;;;;;;;;17.20;90.00;;;;;;5052604;28;19971;-59
2021/07/06 01:52:33;;;;;;;;;;;17.30;90.00;;;;;;5052315;28;19990;-65
2021/07/06 01:54:59;;;;;;;;;;;17.20;90.00;;;;;;5052524;28;20376;-65
2021/07/06 01:57:24;;;;;;;;;;;17.20;90.00;;;;;;5051809;28;19920;-64
2021/07/06 01:59:51;;;;;;;;;;;17.20;90.00;;;;;;5052662;28;19916;-65
2021/07/06 02:02:16;;;;;;;;;;;17.30;90.00;;;;;;5052584;28;19986;-65
2021/07/06 02:04:42;;;;;;;;;;;17.20;89.90;;;;;;5034420;28;19956;-65
2021/07/06 02:07:07;;;;;;;;;;;17.30;90.00;;;;;;5052241;28;19916;-65
2021/07/06 02:09:33;;;;;;;;;;;17.30;89.90;;;;;;5052334;28;19923;-66
2021/07/06 02:11:59;;;;;;;;;;;17.30;89.90;;;;;;5051864;28;19924;-65
2021/07/06 02:14:24;;;;;;;;;;;17.30;89.90;;;;;;5051880;28;19924;-65
2021/07/06 02:16:50;;;;;;;;;;;17.30;89.90;;;;;;5051997;28;20380;-66
2021/07/06 02:19:15;;;;;;;;;;;17.30;89.90;;;;;;5051721;28;20415;-65
2021/07/06 02:21:41;;;;;;;;;;;17.30;89.80;;;;;;5052215;28;20296;-65
2021/07/06 02:24:07;;;;;;;;;;;17.30;89.80;;;;;;5051697;28;19999;-65
2021/07/06 02:26:32;;;;;;;;;;;17.30;89.70;;;;;;5051744;28;19960;-66
2021/07/06 02:28:58;;;;;;;;;;;17.30;89.70;;;;;;5052008;28;20319;-65
2021/07/06 02:31:23;;;;;;;;;;;17.30;89.60;;;;;;5051312;28;19920;-64
2021/07/06 02:33:49;;;;;;;;;;;17.30;89.60;;;;;;5034275;28;19917;-65
2021/07/06 02:36:14;;;;;;;;;;;17.30;89.60;;;;;;5051923;28;19925;-65
2021/07/06 02:38:40;;;;;;;;;;;17.30;89.60;;;;;;5051198;28;19916;-65
2021/07/06 02:41:06;;;;;;;;;;;17.30;89.50;;;;;;5051674;28;19939;-65
2021/07/06 02:43:32;;;;;;;;;;;17.30;89.50;;;;;;5051912;28;19924;-65
2021/07/06 02:45:57;;;;;;;;;;;17.30;90.00;;;;;;5033666;28;19916;-65
2021/07/06 02:48:23;;;;;;;;;;;17.30;89.50;;;;;;5051449;28;19917;-66
2021/07/06 02:50:49;;;;;;;;;;;17.30;89.60;;;;;;5051171;28;19998;-65
2021/07/06 02:53:14;;;;;;;;;;;17.30;89.50;;;;;;5051703;28;19924;-66
2021/07/06 02:55:40;;;;;;;;;;;17.30;89.50;;;;;;5051587;28;19928;-66
2021/07/06 02:58:07;;;;;;;;;;;17.30;89.50;;;;;;5050841;28;19982;-65
2021/07/06 03:00:33;;;;;;;;;;;17.40;89.50;;;;;;5051582;28;20057;-65
2021/07/06 03:02:59;;;;;;;;;;;17.30;89.40;;;;;;5051551;28;19928;-65
2021/07/06 03:05:26;;;;;;;;;;;17.30;89.40;;;;;;5051213;28;19917;-66
2021/07/06 03:07:52;;;;;;;;;;;17.30;89.40;;;;;;5033515;28;20016;-65
2021/07/06 03:10:19;;;;;;;;;;;17.30;89.40;;;;;;5050875;28;19949;-65
2021/07/06 03:12:45;;;;;;;;;;;17.30;89.40;;;;;;5051571;28;19917;-66
2021/07/06 03:15:12;;;;;;;;;;;17.30;89.40;;;;;;5051292;28;20522;-66
2021/07/06 03:17:37;;;;;;;;;;;17.30;89.40;;;;;;5050423;28;19917;-66
2021/07/06 03:20:04;;;;;;;;;;;17.30;89.40;;;;;;5051273;28;19924;-66
2021/07/06 03:22:30;;;;;;;;;;;17.40;89.40;;;;;;5050875;28;19917;-65
2021/07/06 03:24:56;;;;;;;;;;;17.30;89.40;;;;;;5051260;28;19924;-66
2021/07/06 03:27:22;;;;;;;;;;;17.40;89.50;;;;;;5054093;28;19923;-66
2021/07/06 03:29:48;;;;;;;;;;;17.40;89.40;;;;;;5054594;28;19927;-66
2021/07/06 03:32:13;;;;;;;;;;;17.40;89.30;;;;;;5055387;28;19917;-66
2021/07/06 03:34:39;;;;;;;;;;;17.40;89.40;;;;;;5055310;28;20388;-65
2021/07/06 03:37:08;;;;;;;;;;;17.40;89.30;;;;;;5036722;28;19978;-65
2021/07/06 03:39:37;;;;;;;;;;;17.40;89.30;;;;;;5055143;28;20002;-65
2021/07/06 03:42:04;;;;;;;;;;;17.50;89.30;;;;;;5054740;28;19917;-65
2021/07/06 03:44:29;;;;;;;;;;;17.50;89.20;;;;;;5055198;28;20392;-65
2021/07/06 03:46:55;;;;;;;;;;;17.50;89.10;;;;;;5054877;28;19917;-65
2021/07/06 03:49:20;;;;;;;;;;;17.40;89.00;;;;;;5054584;28;19917;-65
2021/07/06 03:51:46;;;;;;;;;;;17.40;89.00;;;;;;5055124;28;19920;-65
2021/07/06 03:54:11;;;;;;;;;;;17.40;89.00;;;;;;5036707;28;20003;-65
2021/07/06 03:56:37;;;;;;;;;;;17.40;89.00;;;;;;5054835;28;20003;-66
2021/07/06 03:59:02;;;;;;;;;;;17.40;89.00;;;;;;5054818;28;19917;-65
2021/07/06 04:01:28;;;;;;;;;;;17.40;89.10;;;;;;5054338;28;20008;-65
2021/07/06 04:03:53;;;;;;;;;;;17.40;89.20;;;;;;5054984;28;19971;-65
2021/07/06 04:06:19;;;;;;;;;;;17.40;89.30;;;;;;5054768;28;19924;-66
2021/07/06 04:08:44;;;;;;;;;;;17.50;89.50;;;;;;5053929;28;19923;-65
2021/07/06 04:11:10;;;;;;;;;;;17.50;89.40;;;;;;5054811;28;19959;-65
2021/07/06 04:13:36;;;;;;;;;;;17.50;89.40;;;;;;5054703;28;19936;-66
2021/07/06 04:16:01;;;;;;;;;;;17.60;89.40;;;;;;5053943;28;19928;-66
2021/07/06 04:18:27;;;;;;;;;;;17.60;89.50;;;;;;5054196;28;20447;-66
2021/07/06 04:20:52;;;;;;;;;;;17.70;89.40;;;;;;5053830;28;20411;-66
2021/07/06 04:23:18;;;;;;;;;;;17.70;89.40;;;;;;5054465;28;20452;-66
2021/07/06 04:25:43;;;;;;;;;;;17.80;89.40;;;;;;5054362;28;20381;-65
2021/07/06 04:28:09;;;;;;;;;;;17.90;89.30;;;;;;5053468;28;19917;-66
2021/07/06 04:30:34;;;;;;;;;;;18.00;89.30;;;;;;5036350;28;20301;-65
2021/07/06 04:33:00;;;;;;;;;;;18.10;89.10;;;;;;5054312;28;20002;-66
2021/07/06 04:35:25;;;;;;;;;;;18.20;89.10;;;;;;5053629;28;20434;-66
2021/07/06 04:37:51;;;;;;;;;;;18.30;88.90;;;;;;5053446;28;19923;-66
2021/07/06 04:40:17;;;;;;;;;;;18.40;88.80;;;;;;5053581;28;19913;-65
2021/07/06 04:42:43;;;;;;;;;;;18.60;88.50;;;;;;5054019;28;19951;-65
2021/07/06 04:45:08;;;;;;;;;;;18.50;88.20;;;;;;5054339;28;19917;-60
2021/07/06 04:47:34;;;;;;;;;;;18.60;88.20;;;;;;5035065;28;19917;-60
2021/07/06 04:50:00;;;;;;;;;;;18.70;88.10;;;;;;5053888;28;19913;-60
2021/07/06 04:52:26;;;;;;;;;;;18.70;88.10;;;;;;5035297;28;19921;-61
2021/07/06 04:54:51;;;;;;;;;;;18.80;88.00;;;;;;5053751;28;20011;-61
2021/07/06 04:57:21;;;;;;;;;;;18.80;87.70;;;;;;5053456;28;19924;-60
2021/07/06 04:59:48;;;;;;;;;;;18.90;87.50;;;;;;5053239;28;19982;-60
2021/07/06 05:02:13;;;;;;;;;;;18.90;87.30;;;;;;5053534;28;20388;-60
2021/07/06 05:04:39;;;;;;;;;;;19.00;87.20;;;;;;5053538;28;19917;-61
2021/07/06 05:07:04;;;;;;;;;;;19.00;87.10;;;;;;5052103;28;20385;-61
2021/07/06 05:09:34;;;;;;;;;;;19.10;87.00;;;;;;5053384;28;20007;-61
2021/07/06 05:12:00;;;;;;;;;;;19.20;87.20;;;;;;5052830;28;19916;-60
2021/07/06 05:14:25;;;;;;;;;;;19.30;87.40;;;;;;5053395;28;19939;-61
2021/07/06 05:16:51;;;;;;;;;;;19.50;87.20;;;;;;5052437;28;20400;-61
2021/07/06 05:19:16;;;;;;;;;;;19.70;87.00;;;;;;5052775;28;19917;-61
2021/07/06 05:21:42;;;;;;;;;;;19.90;86.70;;;;;;5060619;28;19923;-61
2021/07/06 05:24:08;;;;;;;;;;;20.00;86.50;;;;;;5049287;28;20012;-60
2021/07/06 05:26:34;;;;;;;;;;;20.20;86.00;;;;;;5060766;28;21427;-61
2021/07/06 05:28:59;;;;;;;;;;;20.20;85.10;;;;;;5067984;28;19917;-60
2021/07/06 05:31:25;;;;;;;;;;;20.20;84.70;;;;;;5037866;28;19925;-61
2021/07/06 05:33:50;;;;;;;;;;;20.30;84.30;;;;;;5072965;28;20365;-61
2021/07/06 05:36:17;;;;;;;;;;;20.20;84.40;;;;;;5072776;28;19927;-61
2021/07/06 05:38:43;;;;;;;;;;;20.30;84.70;;;;;;5072085;28;19916;-61
2021/07/06 05:41:09;;;;;;;;;;;20.40;84.40;;;;;;5037488;28;20424;-61
2021/07/06 05:43:34;;;;;;;;;;;20.50;84.20;;;;;;5055937;28;19917;-61
2021/07/06 05:46:01;;;;;;;;;;;20.60;84.30;;;;;;5065398;28;19917;-61
2021/07/06 05:48:26;;;;;;;;;;;20.60;83.30;;;;;;5062793;28;19973;-61
2021/07/06 05:50:52;;;;;;;;;;;20.70;82.80;;;;;;5057631;28;20323;-60
2021/07/06 05:53:17;;;;;;;;;;;20.60;82.50;;;;;;5051669;28;20390;-60
2021/07/06 05:55:43;;;;;;;;;;;20.50;82.20;;;;;;5051864;28;20308;-59
2021/07/06 05:58:09;;;;;;;;;;;20.50;82.00;;;;;;5051203;28;19917;-59
2021/07/06 06:00:34;;;;;;;;;;;20.40;82.60;;;;;;5051590;28;19917;-60
2021/07/06 06:03:00;;;;;;;;;;;20.40;82.30;;;;;;5052360;28;19917;-60
2021/07/06 06:05:26;;;;;;;;;;;20.40;82.50;;;;;;5068398;28;19970;-60
2021/07/06 06:07:52;;;;;;;;;;;20.50;82.20;;;;;;5065446;28;19916;-60
2021/07/06 06:10:18;;;;;;;;;;;20.50;82.20;;;;;;5060463;28;19917;-60
2021/07/06 06:12:43;;;;;;;;;;;20.60;82.20;;;;;;5060953;28;19966;-60
2021/07/06 06:15:09;;;;;;;;;;;20.80;82.00;;;;;;5068523;28;19920;-60
2021/07/06 06:17:36;;;;;;;;;;;21.20;84.10;;;;;;5051089;28;19978;-60
2021/07/06 06:20:03;;;;;;;;;;;22.70;88.60;;;;;;5051754;28;20475;-61
2021/07/06 06:22:29;;;;;;;;;;;24.60;89.70;;;;;;5051653;28;19966;-61
2021/07/06 06:24:55;;;;;;;;;;;26.40;85.10;;;;;;5051976;28;20336;-61
2021/07/06 06:27:20;;;;;;;;;;;27.80;82.40;;;;;;5051563;28;19916;-60
2021/07/06 06:29:46;;;;;;;;;;;29.20;79.50;;;;;;5051273;28;19925;-61
2021/07/06 06:32:11;;;;;;;;;;;30.50;74.90;;;;;;5051954;28;19934;-61
2021/07/06 06:34:37;;;;;;;;;;;31.50;72.00;;;;;;5051868;28;19917;-61
2021/07/06 06:37:02;;;;;;;;;;;32.50;68.20;;;;;;5051102;28;20046;-61
2021/07/06 06:39:28;;;;;;;;;;;33.50;63.80;;;;;;5033835;28;19921;-61
2021/07/06 06:41:55;;;;;;;;;;;34.20;60.50;;;;;;5050733;28;21309;-62
2021/07/06 06:44:21;;;;;;;;;;;34.60;57.60;;;;;;5051830;28;20340;-62
2021/07/06 06:46:46;;;;;;;;;;;34.00;53.50;;;;;;5051533;28;20335;-61
2021/07/06 06:49:12;;;;;;;;;;;32.70;51.20;;;;;;5051299;28;20293;-62
2021/07/06 06:51:37;;;;;;;;;;;31.20;51.10;;;;;;5051578;28;20351;-62
2021/07/06 06:54:03;;;;;;;;;;;29.70;50.70;;;;;;5051519;28;19920;-61
2021/07/06 06:56:29;;;;;;;;;;;28.50;52.30;;;;;;5033146;28;19932;-61
2021/07/06 06:58:55;;;;;;;;;;;27.70;53.40;;;;;;5051274;28;19947;-61
2021/07/06 07:01:20;;;;;;;;;;;27.20;54.20;;;;;;5050613;28;20552;-62
2021/07/06 07:03:47;;;;;;;;;;;27.10;56.10;;;;;;5051528;28;19924;-62
2021/07/06 07:06:12;;;;;;;;;;;27.40;57.80;;;;;;5051355;28;20319;-62
2021/07/06 07:08:38;;;;;;;;;;;28.20;59.00;;;;;;5050686;28;19999;-62
2021/07/06 07:11:03;;;;;;;;;;;29.60;60.20;;;;;;5051453;28;20300;-62
2021/07/06 07:13:29;;;;;;;;;;;31.60;59.90;;;;;;5051298;28;19917;-62
2021/07/06 07:15:54;;;;;;;;;;;32.70;55.00;;;;;;5050848;28;19968;-62
2021/07/06 07:18:20;;;;;;;;;;;32.10;50.60;;;;;;5051080;28;20388;-61
2021/07/06 07:20:46;;;;;;;;;;;31.10;49.90;;;;;;5051126;28;19928;-61
2021/07/06 07:23:11;;;;;;;;;;;30.30;50.10;;;;;;5050722;28;20004;-61
2021/07/06 07:25:37;;;;;;;;;;;29.70;50.90;;;;;;5051334;28;20012;-61
2021/07/06 07:28:03;;;;;;;;;;;29.30;51.10;;;;;;5050552;28;19918;-62
2021/07/06 07:30:28;;;;;;;;;;;28.90;51.90;;;;;;5033142;28;20381;-61
2021/07/06 07:32:54;;;;;;;;;;;28.60;51.70;;;;;;5051277;28;19917;-61
2021/07/06 07:35:20;;;;;;;;;;;28.10;51.70;;;;;;5050493;28;19966;-62
2021/07/06 07:37:46;;;;;;;;;;;27.60;52.40;;;;;;5050760;28;19917;-62
2021/07/06 07:40:12;;;;;;;;;;;27.40;53.50;;;;;;5051235;28;20008;-61
2021/07/06 07:42:38;;;;;;;;;;;27.40;55.00;;;;;;5050666;28;20395;-62
2021/07/06 07:45:04;;;;;;;;;;;28.40;56.90;;;;;;5051098;28;19913;-62
2021/07/06 07:47:30;;;;;;;;;;;31.00;60.30;;;;;;5050360;28;20066;-63
2021/07/06 07:49:55;;;;;;;;;;;33.60;56.10;;;;;;5050958;28;20019;-60
2021/07/06 07:52:21;;;;;;;;;;;35.60;53.00;;;;;;5051169;28;19917;-60
2021/07/06 07:54:47;;;;;;;;;;;36.70;47.60;;;;;;5050539;28;19921;-60
2021/07/06 07:57:23;;;;;;;;;;;37.40;46.00;;;;;;5050690;28;19917;-60
2021/07/06 07:59:49;;;;;;;;;;;38.10;43.10;;;;;;5050381;28;19923;-60
2021/07/06 08:02:15;;;;;;;;;;;39.00;42.20;;;;;;5033249;28;19996;-60
2021/07/06 08:04:40;;;;;;;;;;;39.80;40.80;;;;;;5050869;28;19944;-60
2021/07/06 08:07:07;;;;;;;;;;;40.80;39.80;;;;;;5050144;28;19978;-60
2021/07/06 08:09:32;;;;;;;;;;;41.90;38.40;;;;;;5050750;28;19924;-60
2021/07/06 08:11:58;;;;;;;;;;;42.70;37.00;;;;;;5051043;28;19917;-60
2021/07/06 08:14:23;;;;;;;;;;;43.50;35.30;;;;;;5054461;28;19964;-60
2021/07/06 08:16:51;;;;;;;;;;;43.90;34.20;;;;;;5054323;28;19920;-60
2021/07/06 08:19:17;;;;;;;;;;;44.70;33.40;;;;;;5054072;28;19921;-60
2021/07/06 08:21:43;;;;;;;;;;;45.40;32.20;;;;;;5054537;28;20316;-60
2021/07/06 08:24:09;;;;;;;;;;;45.80;31.30;;;;;;5054590;28;19966;-60
2021/07/06 08:26:36;;;;;;;;;;;46.30;30.50;;;;;;5053861;28;19913;-60
2021/07/06 08:29:02;;;;;;;;;;;46.70;29.80;;;;;;5036716;28;19924;-60
2021/07/06 08:31:28;;;;;;;;;;;47.10;29.40;;;;;;5054043;28;20468;-60
2021/07/06 08:33:54;;;;;;;;;;;47.20;28.70;;;;;;5054271;28;19962;-60
2021/07/06 08:36:19;;;;;;;;;;;47.50;28.50;;;;;;5054199;28;20015;-60
2021/07/06 08:38:45;;;;;;;;;;;47.90;27.70;;;;;;5053354;28;19920;-60
2021/07/06 08:41:11;;;;;;;;;;;47.70;27.20;;;;;;5036002;28;19917;-60
2021/07/06 08:43:37;;;;;;;;;;;47.70;27.40;;;;;;5054106;28;20031;-60
2021/07/06 08:46:03;;;;;;;;;;;48.00;27.30;;;;;;5053639;28;19952;-60
2021/07/06 08:48:30;;;;;;;;;;;48.10;27.20;;;;;;5053830;28;19924;-60
2021/07/06 08:50:57;;;;;;;;;;;48.00;26.70;;;;;;5053306;28;20816;-60
2021/07/06 08:53:23;;;;;;;;;;;46.90;26.40;;;;;;5052814;28;19971;-59
2021/07/06 08:55:48;;;;;;;;;;;45.00;26.50;;;;;;5052716;28;19920;-60
2021/07/06 08:58:16;;;;;;;;;;;42.90;27.10;;;;;;5051870;28;19916;-60
2021/07/06 09:00:42;;;;;;;;;;;41.00;28.00;;;;;;5052532;28;20385;-60
2021/07/06 09:03:09;;;;;;;;;;;39.40;28.90;;;;;;5034409;28;19917;-59
2021/07/06 09:05:35;;;;;;;;;;;37.90;29.90;;;;;;5052507;28;19917;-60
2021/07/06 09:08:01;;;;;;;;;;;36.90;31.20;;;;;;5052116;28;19917;-59
2021/07/06 09:10:32;;;;;;;;;;;35.90;32.20;;;;;;5051751;28;19969;-60
2021/07/06 09:12:59;;;;;;;;;;;35.00;33.10;;;;;;5052439;28;19917;-60
2021/07/06 09:15:25;;;;;;;;;;;34.30;34.70;;;;;;5051856;28;20421;-60
2021/07/06 09:18:03;;;;;;;;;;;33.90;35.40;;;;;;5051778;28;19917;-59
2021/07/06 09:20:29;;;;;;;;;;;33.20;35.90;;;;;;5052160;28;19970;-59
2021/07/06 09:23:14;;;;;;;;;;;32.30;36.80;;;;;;5051145;28;20639;-59
2021/07/06 09:25:40;;;;;;;;;;;31.60;37.90;;;;;;5051159;28;19924;-62
2021/07/06 09:28:19;;;;;;;;;;;30.70;39.30;;;;;;5051799;28;19917;-62
2021/07/06 09:30:45;;;;;;;;;;;30.10;41.30;;;;;;5051791;28;20339;-61
2021/07/06 09:33:10;;;;;;;;;;;29.80;42.60;;;;;;5051502;28;19920;-62
2021/07/06 09:35:36;;;;;;;;;;;29.70;44.10;;;;;;5051904;28;19925;-61
2021/07/06 09:38:02;;;;;;;;;;;29.70;44.60;;;;;;5051194;28;19917;-62
2021/07/06 09:40:36;;;;;;;;;;;29.70;45.10;;;;;;5051940;28;19924;-62
2021/07/06 09:43:20;;;;;;;;;;;30.00;46.60;;;;;;5051872;28;19929;-62
2021/07/06 09:45:59;;;;;;;;;;;30.70;47.00;;;;;;5051368;28;19917;-62
2021/07/06 09:48:25;;;;;;;;;;;31.60;47.10;;;;;;5033034;28;19929;-61
2021/07/06 09:50:50;;;;;;;;;;;33.10;47.40;;;;;;5051535;28;19913;-60
2021/07/06 09:53:31;;;;;;;;;;;33.80;44.90;;;;;;5051580;28;19956;-60
2021/07/06 09:55:57;;;;;;;;;;;33.80;43.20;;;;;;5050934;28;19928;-60
2021/07/06 09:58:23;;;;;;;;;;;33.40;42.70;;;;;;5051241;28;19917;-60
2021/07/06 10:00:50;;;;;;;;;;;33.60;44.00;;;;;;5050814;28;19952;-61
2021/07/06 10:03:16;;;;;;;;;;;35.10;44.80;;;;;;5051002;28;19917;-59
2021/07/06 10:05:43;;;;;;;;;;;36.90;43.80;;;;;;5051044;28;19917;-59
2021/07/06 10:08:12;;;;;;;;;;;37.50;40.80;;;;;;5050461;28;19947;-59
2021/07/06 10:10:38;;;;;;;;;;;37.00;38.70;;;;;;5050957;28;19920;-59
2021/07/06 10:13:04;;;;;;;;;;;36.20;38.30;;;;;;5050855;28;20385;-59
2021/07/06 10:15:31;;;;;;;;;;;35.40;38.80;;;;;;5051151;28;19921;-59
2021/07/06 10:17:57;;;;;;;;;;;34.70;38.50;;;;;;5050925;28;19924;-59
2021/07/06 10:20:27;;;;;;;;;;;34.10;39.30;;;;;;5050590;28;20326;-58
2021/07/06 10:22:53;;;;;;;;;;;34.00;39.60;;;;;;5050799;28;19916;-58
2021/07/06 10:25:26;;;;;;;;;;;33.90;40.00;;;;;;5032462;28;19917;-59
2021/07/06 10:27:54;;;;;;;;;;;33.80;39.20;;;;;;5032673;28;20324;-59
2021/07/06 10:30:23;;;;;;;;;;;33.30;39.00;;;;;;5050241;28;19921;-60
2021/07/06 10:32:53;;;;;;;;;;;32.80;40.00;;;;;;5050741;28;20442;-59
2021/07/06 10:35:36;;;;;;;;;;;32.30;39.60;;;;;;5050375;28;20344;-59
2021/07/06 10:38:21;;;;;;;;;;;31.70;40.30;;;;;;5049628;28;19917;-58
2021/07/06 10:40:47;;;;;;;;;;;31.20;40.90;;;;;;5050031;28;19928;-59
2021/07/06 10:43:28;;;;;;;;;;;30.80;41.40;;;;;;5050685;28;19917;-59
2021/07/06 10:45:53;;;;;;;;;;;30.50;41.90;;;;;;5066001;28;19924;-67
2021/07/06 10:48:38;;;;;;;;;;;30.10;42.40;;;;;;5064823;28;19939;-65
2021/07/06 10:51:06;;;;;;;;;;;29.90;43.10;;;;;;5051121;28;20012;-65
2021/07/06 10:53:32;;;;;;;;;;;29.50;43.50;;;;;;5051828;28;19913;-68
2021/07/06 10:56:11;;;;;;;;;;;29.30;44.20;;;;;;5051511;28;19948;-67
2021/07/06 10:58:47;;;;;;;;;;;29.00;44.70;;;;;;5051119;28;19917;-67
2021/07/06 11:01:31;;;;;;;;;;;28.80;45.20;;;;;;5051084;28;20404;-67
2021/07/06 11:03:56;;;;;;;;;;;28.60;45.50;;;;;;5033656;28;19986;-68
2021/07/06 11:06:41;;;;;;;;;;;28.40;46.10;;;;;;5051554;28;20357;-68
2021/07/06 11:09:06;;;;;;;;;;;28.30;46.30;;;;;;5064997;28;19920;-68
2021/07/06 11:11:32;;;;;;;;;;;28.20;46.50;;;;;;5070861;28;19913;-67
2021/07/06 11:14:17;;;;;;;;;;;28.10;46.60;;;;;;5062908;28;20011;-67
2021/07/06 11:16:42;;;;;;;;;;;28.00;46.90;;;;;;5067781;28;19924;-68
2021/07/06 11:19:26;;;;;;;;;;;27.80;47.30;;;;;;5068105;28;19917;-68
2021/07/06 11:22:06;;;;;;;;;;;27.80;48.00;;;;;;5053540;28;20604;-68
2021/07/06 11:24:38;;;;;;;;;;;27.70;48.30;;;;;;5056383;28;19948;-67
2021/07/06 11:27:04;;;;;;;;;;;27.80;48.50;;;;;;5064477;28;19966;-68
2021/07/06 11:29:33;;;;;;;;;;;27.80;48.80;;;;;;5064246;28;20554;-67
2021/07/06 11:32:15;;;;;;;;;;;28.00;49.30;;;;;;5064618;28;20365;-67
2021/07/06 11:34:42;;;;;;;;;;;28.20;49.40;;;;;;5066845;28;20384;-67
2021/07/06 11:37:09;;;;;;;;;;;28.30;48.80;;;;;;5064174;28;20392;-68
2021/07/06 11:39:35;;;;;;;;;;;28.30;48.90;;;;;;5064331;28;19923;-64
2021/07/06 11:42:01;;;;;;;;;;;28.30;49.30;;;;;;5062969;28;19921;-68
2021/07/06 11:44:27;;;;;;;;;;;28.30;48.70;;;;;;5066099;28;19932;-68
2021/07/06 11:47:05;;;;;;;;;;;28.10;48.70;;;;;;5054204;28;20019;-67
2021/07/06 11:49:31;;;;;;;;;;;28.00;48.80;;;;;;5069482;28;20078;-68
2021/07/06 11:51:59;;;;;;;;;;;27.90;49.30;;;;;;5045637;28;20586;-68
2021/07/06 11:54:24;;;;;;;;;;;27.70;49.20;;;;;;5044045;28;20289;-67
2021/07/06 11:56:50;;;;;;;;;;;27.40;49.40;;;;;;5070812;28;19935;-67
2021/07/06 11:59:16;;;;;;;;;;;27.10;50.00;;;;;;5057558;28;19931;-66
2021/07/06 12:01:41;;;;;;;;;;;26.80;50.60;;;;;;5067921;28;20266;-66
2021/07/06 12:04:07;;;;;;;;;;;26.60;51.30;;;;;;5045536;28;19928;-66
2021/07/06 12:06:32;;;;;;;;;;;26.50;51.70;;;;;;5070901;28;19948;-65
2021/07/06 12:09:02;;;;;;;;;;;26.40;51.90;;;;;;5064194;28;19925;-67
2021/07/06 12:11:31;;;;;;;;;;;26.30;52.50;;;;;;5059660;28;19920;-65
2021/07/06 12:14:01;;;;;;;;;;;26.10;52.70;;;;;;5074521;28;20357;-66
2021/07/06 12:16:27;;;;;;;;;;;26.00;53.10;;;;;;5060251;28;19983;-65
2021/07/06 12:18:54;;;;;;;;;;;25.80;53.50;;;;;;5051919;28;20011;-65
2021/07/06 12:21:30;;;;;;;;;;;25.60;53.70;;;;;;5061200;28;19935;-65
2021/07/06 12:23:57;;;;;;;;;;;25.40;54.30;;;;;;5070559;28;20332;-66
2021/07/06 12:26:23;;;;;;;;;;;25.20;54.90;;;;;;5051556;28;19913;-65
2021/07/06 12:28:49;;;;;;;;;;;25.00;55.60;;;;;;5073540;28;19923;-65
2021/07/06 12:31:17;;;;;;;;;;;24.70;57.10;;;;;;5074164;28;19928;-65
2021/07/06 12:33:44;;;;;;;;;;;24.30;58.50;;;;;;5074352;28;20380;-66
2021/07/06 12:36:10;;;;;;;;;;;24.10;59.40;;;;;;5055889;28;20011;-65
2021/07/06 12:38:36;;;;;;;;;;;23.90;60.10;;;;;;5073813;28;20528;-65
2021/07/06 12:41:14;;;;;;;;;;;23.80;60.30;;;;;;5073439;28;19961;-66
2021/07/06 12:43:40;;;;;;;;;;;23.80;60.30;;;;;;5074078;28;19959;-66
2021/07/06 12:46:06;;;;;;;;;;;23.90;60.40;;;;;;5074009;28;19912;-65
2021/07/06 12:48:35;;;;;;;;;;;23.90;60.30;;;;;;5073347;28;19929;-66
2021/07/06 12:51:09;;;;;;;;;;;24.00;60.20;;;;;;5049533;28;19924;-66
2021/07/06 12:53:34;;;;;;;;;;;24.00;60.00;;;;;;5070253;28;19920;-66
2021/07/06 12:56:00;;;;;;;;;;;23.90;60.00;;;;;;5066640;28;19932;-66
2021/07/06 12:58:29;;;;;;;;;;;23.90;60.20;;;;;;5066736;28;19944;-65
2021/07/06 13:00:54;;;;;;;;;;;23.80;60.50;;;;;;5071296;28;20346;-66
2021/07/06 13:03:20;;;;;;;;;;;23.80;60.50;;;;;;5071885;28;19923;-66
2021/07/06 13:05:48;;;;;;;;;;;23.90;61.10;;;;;;5067524;28;19943;-65
2021/07/06 13:08:20;;;;;;;;;;;23.90;60.50;;;;;;5047915;28;20007;-66
2021/07/06 13:10:46;;;;;;;;;;;23.90;60.60;;;;;;5062178;28;19917;-65
2021/07/06 13:13:13;;;;;;;;;;;24.00;60.60;;;;;;5070504;28;19936;-66
2021/07/06 13:15:40;;;;;;;;;;;24.00;60.40;;;;;;5062335;28;20403;-65
2021/07/06 13:18:07;;;;;;;;;;;24.10;60.40;;;;;;5067254;28;20385;-67
2021/07/06 13:20:34;;;;;;;;;;;24.10;60.30;;;;;;5060982;28;20380;-65
2021/07/06 13:23:00;;;;;;;;;;;24.00;60.10;;;;;;5062387;28;19920;-64
2021/07/06 13:25:26;;;;;;;;;;;24.10;60.10;;;;;;5063969;28;20536;-65
2021/07/06 13:27:58;;;;;;;;;;;24.10;59.90;;;;;;5061273;28;19917;-65
2021/07/06 13:30:24;;;;;;;;;;;24.00;59.80;;;;;;5058226;28;19970;-64
2021/07/06 13:32:50;;;;;;;;;;;24.10;59.80;;;;;;5061033;28;19928;-65
2021/07/06 13:35:16;;;;;;;;;;;24.10;59.80;;;;;;5064886;28;19939;-65
2021/07/06 13:37:42;;;;;;;;;;;24.20;60.10;;;;;;5070466;28;19921;-65
2021/07/06 13:40:10;;;;;;;;;;;24.50;60.20;;;;;;5059085;28;20424;-66
2021/07/06 13:42:36;;;;;;;;;;;25.00;59.90;;;;;;5058778;28;19974;-64
2021/07/06 13:45:02;;;;;;;;;;;25.50;59.40;;;;;;5060823;28;19920;-65
2021/07/06 13:47:28;;;;;;;;;;;26.00;58.70;;;;;;5056898;28;19920;-66
2021/07/06 13:49:54;;;;;;;;;;;26.20;57.80;;;;;;5052003;28;19924;-65
2021/07/06 13:52:19;;;;;;;;;;;26.20;57.00;;;;;;5052619;28;19944;-66
2021/07/06 13:54:45;;;;;;;;;;;26.20;56.60;;;;;;5051951;28;19971;-65
2021/07/06 13:57:13;;;;;;;;;;;26.10;56.70;;;;;;5052111;28;19920;-66
2021/07/06 13:59:39;;;;;;;;;;;26.00;56.80;;;;;;5052259;28;19917;-66
2021/07/06 14:02:05;;;;;;;;;;;26.00;56.80;;;;;;5062289;28;20015;-65
2021/07/06 14:04:31;;;;;;;;;;;26.10;57.10;;;;;;5063662;28;19924;-65
2021/07/06 14:06:57;;;;;;;;;;;26.20;56.70;;;;;;5067957;28;19916;-64
2021/07/06 14:09:22;;;;;;;;;;;26.20;56.70;;;;;;5049837;28;19951;-66
2021/07/06 14:11:48;;;;;;;;;;;26.30;57.10;;;;;;5051109;28;19919;-66
2021/07/06 14:14:13;;;;;;;;;;;26.40;57.00;;;;;;5053031;28;20023;-65
2021/07/06 14:16:39;;;;;;;;;;;26.40;56.50;;;;;;5070280;28;19916;-65